Time;durP1;ratioP1;P1;durP2;ratioP2;P2;SDS_P1;SDS_P2;PMS_P1;PMS_P2;Temp;Humidity;BMP_temperature;BMP_pressure;BME280_temperature;BME280_humidity;BME280_pressure;Samples;Min_cycle;Max_cycle;Signal;HPM_P1;HPM_P2
2022/07/20 00:00:50;;;;;;;7.40;6.72;;;;;;;27.03;72.09;99949.56;4984788;28;20045;-71
2022/07/20 00:03:16;;;;;;;6.90;6.30;;;;;;;27.04;72.58;99943.88;4983695;28;20042;-72
2022/07/20 00:05:43;;;;;;;6.82;6.13;;;;;;;27.12;71.82;99948.94;4985868;28;20109;-72
2022/07/20 00:08:09;;;;;;;12.43;6.57;;;;;;;27.16;71.57;99943.84;4983182;28;20030;-72
2022/07/20 00:13:21;;;;;;;8.85;6.85;;;;;;;26.56;73.61;99943.41;4980986;28;20157;-72
2022/07/20 00:15:47;;;;;;;14.52;6.82;;;;;;;26.64;73.60;99945.72;4983804;28;20039;-72
2022/07/20 00:18:13;;;;;;;7.53;6.70;;;;;;;26.73;73.04;99947.84;4984314;28;20491;-72
2022/07/20 00:20:39;;;;;;;7.72;7.03;;;;;;;26.84;72.92;99943.44;4983343;28;20062;-72
2022/07/20 00:23:05;;;;;;;8.45;7.00;;;;;;;26.90;72.66;99942.53;4984813;28;20118;-72
2022/07/20 00:25:30;;;;;;;9.65;6.40;;;;;;;26.92;72.94;99945.00;4983600;28;20031;-73
2022/07/20 00:27:56;;;;;;;7.70;6.28;;;;;;;26.96;72.99;99944.28;4985850;28;20026;-73
2022/07/20 00:30:22;;;;;;;8.48;7.13;;;;;;;26.83;73.56;99955.34;4982751;28;20483;-73
2022/07/20 00:32:48;;;;;;;9.10;7.00;;;;;;;26.73;73.53;99942.44;4981716;28;20038;-72
2022/07/20 00:35:15;;;;;;;9.23;6.80;;;;;;;26.32;75.69;99948.81;4984422;28;20161;-73
2022/07/20 00:37:42;;;;;;;13.25;7.10;;;;;;;26.38;75.70;99944.34;4983473;28;20050;-72
2022/07/20 00:40:10;;;;;;;7.25;6.75;;;;;;;26.44;75.76;99946.94;4984019;28;20506;-72
2022/07/20 00:42:37;;;;;;;8.70;6.43;;;;;;;26.40;76.23;99951.16;4982449;28;20041;-72
2022/07/20 00:45:05;;;;;;;6.95;6.35;;;;;;;26.23;77.24;99950.22;4983100;28;20522;-72
2022/07/20 00:47:30;;;;;;;6.78;6.10;;;;;;;26.16;77.32;99944.06;4982550;28;20034;-72
2022/07/20 00:49:56;;;;;;;8.48;6.80;;;;;;;26.04;78.27;99945.94;4984194;28;20042;-72
2022/07/20 00:52:22;;;;;;;9.38;7.05;;;;;;;26.12;77.65;99945.59;4984048;28;20118;-73
2022/07/20 00:54:48;;;;;;;9.52;7.03;;;;;;;26.24;77.19;99949.16;4981559;28;20495;-73
2022/07/20 00:57:16;;;;;;;11.18;7.40;;;;;;;26.37;76.63;99946.22;4984860;28;20054;-72
2022/07/20 00:59:42;;;;;;;13.20;6.88;;;;;;;26.49;76.08;99938.94;4983027;28;20599;-72
2022/07/20 01:02:08;;;;;;;8.73;7.05;;;;;;;26.59;75.63;99943.72;4983302;28;20046;-72
2022/07/20 01:04:33;;;;;;;8.27;6.80;;;;;;;26.67;74.70;99943.38;4982319;28;20031;-72
2022/07/20 01:07:00;;;;;;;12.32;7.05;;;;;;;26.70;74.24;99944.75;4984157;28;20035;-72
2022/07/20 01:09:26;;;;;;;10.05;6.85;;;;;;;26.75;74.66;99945.69;4982920;28;20046;-72
2022/07/20 01:11:51;;;;;;;8.90;7.05;;;;;;;26.80;74.86;99940.38;4979350;28;20561;-72
2022/07/20 01:14:17;;;;;;;8.27;6.15;;;;;;;26.86;74.74;99941.34;4982616;28;20038;-72
2022/07/20 01:16:42;;;;;;;7.80;6.75;;;;;;;26.90;74.88;99939.81;4982797;28;20030;-72
2022/07/20 01:19:08;;;;;;;8.45;6.32;;;;;;;26.94;74.57;99942.84;4983039;28;20031;-72
2022/07/20 01:21:41;;;;;;;9.52;6.13;;;;;;;26.99;74.52;99943.78;4981738;28;20046;-72
2022/07/20 01:24:10;;;;;;;8.13;6.70;;;;;;;27.03;74.70;99942.25;4983503;28;20030;-72
2022/07/20 01:26:40;;;;;;;7.72;7.00;;;;;;;27.07;75.16;99937.19;4981954;28;20030;-72
2022/07/20 01:29:05;;;;;;;;;;;;;;;27.02;75.60;99943.31;4980378;28;20404;-72
2022/07/20 01:31:31;;;;;;;7.57;6.78;;;;;;;26.98;75.83;99947.56;4982851;28;19917;-72
2022/07/20 01:33:57;;;;;;;8.15;7.32;;;;;;;26.84;75.64;99944.28;4982626;28;20117;-71
2022/07/20 01:36:22;;;;;;;10.88;7.07;;;;;;;26.79;76.12;99954.19;4983128;28;20039;-73
2022/07/20 01:38:48;;;;;;;7.20;6.38;;;;;;;26.74;76.75;99946.75;4981013;28;20034;-73
2022/07/20 01:41:14;;;;;;;8.18;7.30;;;;;;;26.73;77.03;99949.72;4983837;28;20038;-73
2022/07/20 01:43:39;;;;;;;7.45;6.75;;;;;;;26.75;77.25;99948.41;4984445;28;20078;-73
2022/07/20 01:46:05;;;;;;;8.43;7.53;;;;;;;26.71;77.72;99946.41;4980230;28;20039;-73
2022/07/20 01:48:31;;;;;;;11.20;8.10;;;;;;;26.60;78.34;99944.56;4981359;28;20030;-72
2022/07/20 01:50:56;;;;;;;10.38;7.45;;;;;;;26.49;78.77;99938.94;4980988;28;20471;-72
2022/07/20 01:53:22;;;;;;;10.35;7.45;;;;;;;26.42;79.29;99949.03;4982894;28;20049;-72
2022/07/20 01:55:48;;;;;;;8.65;7.80;;;;;;;26.25;80.12;99942.69;4982412;28;20069;-73
2022/07/20 01:58:13;;;;;;;10.40;7.63;;;;;;;26.16;80.68;99946.75;4983187;28;20030;-72
2022/07/20 02:00:39;;;;;;;9.85;8.02;;;;;;;26.16;80.48;99954.88;4982764;28;20034;-72
2022/07/20 02:03:05;;;;;;;8.65;7.47;;;;;;;26.11;80.32;99946.66;4981697;28;20038;-73
2022/07/20 02:05:30;;;;;;;8.15;7.15;;;;;;;26.05;80.92;99942.19;4978580;28;20030;-72
2022/07/20 02:07:56;;;;;;;8.13;7.15;;;;;;;25.97;81.16;99942.53;4980095;28;20081;-71
2022/07/20 02:10:21;;;;;;;9.73;7.63;;;;;;;25.84;81.99;99934.63;4982297;28;20174;-73
2022/07/20 02:12:47;;;;;;;8.90;8.00;;;;;;;25.67;83.24;99939.91;4981066;28;20073;-73
2022/07/20 02:16:14;;;;;;;9.80;8.75;;;;;;;25.59;83.56;99930.25;4982419;28;20046;-74
2022/07/20 02:17:59;;;;;;;9.20;8.25;;;;;;;25.65;83.17;99931.19;4976615;28;20073;-72
2022/07/20 02:20:24;;;;;;;9.45;8.20;;;;;;;25.53;84.10;99938.41;4980852;28;20045;-72
2022/07/20 02:22:50;;;;;;;9.48;8.27;;;;;;;25.39;84.88;99947.78;4982946;28;20030;-72
2022/07/20 02:25:15;;;;;;;11.98;8.15;;;;;;;25.31;85.56;99940.81;4981651;28;20031;-72
2022/07/20 02:27:42;;;;;;;13.98;8.13;;;;;;;25.41;85.58;99941.06;4977668;28;20034;-72
2022/07/20 02:30:08;;;;;;;8.88;7.97;;;;;;;25.30;86.44;99939.16;4980666;28;20378;-72
2022/07/20 02:32:34;;;;;;;8.68;7.93;;;;;;;25.34;86.00;99940.34;4981906;28;20027;-72
2022/07/20 02:34:59;;;;;;;12.18;7.95;;;;;;;25.45;85.50;99936.84;4984087;28;20034;-73
2022/07/20 02:37:25;;;;;;;9.30;8.18;;;;;;;25.52;84.99;99942.97;4979835;28;20074;-72
2022/07/20 02:39:50;;;;;;;10.43;7.72;;;;;;;25.46;85.24;99938.50;4983898;28;20035;-73
2022/07/20 02:42:16;;;;;;;8.68;7.97;;;;;;;25.47;85.53;99940.16;4980816;28;20035;-73
2022/07/20 02:44:42;;;;;;;8.98;7.45;;;;;;;25.55;85.13;99942.53;4981316;28;20082;-72
2022/07/20 02:47:07;;;;;;;8.48;7.70;;;;;;;25.49;85.01;99951.56;4981410;28;20049;-71
2022/07/20 02:49:34;;;;;;;14.93;8.45;;;;;;;25.38;85.49;99941.56;4982693;28;20039;-73
2022/07/20 02:51:59;;;;;;;10.32;7.85;;;;;;;25.34;85.62;99945.75;4982247;28;20502;-73
2022/07/20 02:54:25;;;;;;;8.35;6.93;;;;;;;25.34;85.29;99943.03;4975470;28;20031;-73
2022/07/20 02:56:50;;;;;;;9.57;7.90;;;;;;;25.36;84.94;99938.25;4983461;28;20069;-72
2022/07/20 02:59:16;;;;;;;10.38;7.25;;;;;;;25.45;84.50;99942.25;4980335;28;20022;-72
2022/07/20 03:01:41;;;;;;;10.27;8.25;;;;;;;25.50;84.51;99945.13;4981633;28;20033;-72
2022/07/20 03:04:07;;;;;;;9.30;7.28;;;;;;;25.52;84.25;99953.78;4978135;28;20037;-73
2022/07/20 03:06:33;;;;;;;11.50;7.35;;;;;;;25.57;84.00;99951.25;4982455;28;20105;-73
2022/07/20 03:08:58;;;;;;;10.10;8.02;;;;;;;25.57;84.13;99951.25;4981330;28;20030;-73
2022/07/20 03:11:24;;;;;;;8.35;7.55;;;;;;;25.62;83.76;99953.28;4979198;28;20106;-73
2022/07/20 03:13:50;;;;;;;7.97;7.28;;;;;;;25.66;83.33;99960.69;4983351;28;20038;-71
2022/07/20 03:16:15;;;;;;;8.48;7.78;;;;;;;25.68;83.15;99958.56;4980302;28;20054;-72
2022/07/20 03:18:41;;;;;;;12.57;7.28;;;;;;;25.65;83.30;99959.03;4981916;28;20122;-72
2022/07/20 03:21:06;;;;;;;8.52;7.72;;;;;;;25.71;82.88;99967.28;4981127;28;20030;-72
2022/07/20 03:23:32;;;;;;;14.27;7.45;;;;;;;25.77;82.80;99969.06;4978916;28;20042;-73
2022/07/20 03:25:57;;;;;;;9.15;8.05;;;;;;;25.86;82.42;99965.78;4981004;28;20470;-72
2022/07/20 03:28:23;;;;;;;8.98;8.00;;;;;;;25.90;82.04;99974.25;4979491;28;20031;-73
2022/07/20 03:30:48;;;;;;;8.57;7.78;;;;;;;25.94;82.21;99972.72;4982525;28;20058;-72
2022/07/20 03:33:14;;;;;;;13.95;7.65;;;;;;;25.98;81.92;99979.31;4980248;28;20030;-72
2022/07/20 03:35:40;;;;;;;7.95;7.35;;;;;;;25.96;81.66;99976.03;4981634;28;20047;-73
2022/07/20 03:38:05;;;;;;;10.98;7.30;;;;;;;25.90;82.27;99976.97;4980760;28;20042;-73
2022/07/20 03:40:32;;;;;;;9.15;8.23;;;;;;;25.73;83.74;99981.41;4982083;28;20031;-71
2022/07/20 03:42:58;;;;;;;8.52;7.78;;;;;;;25.41;85.83;99984.31;4979021;28;20026;-73
2022/07/20 03:45:23;;;;;;;8.52;7.82;;;;;;;25.21;87.28;99989.16;4981767;28;20042;-75
2022/07/20 03:47:49;;;;;;;8.77;7.93;;;;;;;25.30;87.16;99985.06;4980329;28;20061;-73
2022/07/20 03:50:14;;;;;;;8.82;7.88;;;;;;;25.29;86.78;99991.53;4980173;28;20027;-70
2022/07/20 03:52:40;;;;;;;8.75;7.50;;;;;;;25.23;87.07;99976.22;4981225;28;20490;-73
2022/07/20 03:55:06;;;;;;;10.07;7.80;;;;;;;25.22;87.10;99974.56;4980193;28;20121;-73
2022/07/20 03:57:32;;;;;;;7.82;7.10;;;;;;;25.25;86.93;99988.47;4981945;28;20096;-72
2022/07/20 03:59:57;;;;;;;10.30;7.75;;;;;;;25.27;86.74;99982.84;4981318;28;20105;-71
2022/07/20 04:02:23;;;;;;;8.63;7.80;;;;;;;25.26;87.19;99992.00;4977779;28;20121;-70
2022/07/20 04:04:48;;;;;;;9.18;7.97;;;;;;;25.12;88.16;99996.72;4979991;28;20118;-72
2022/07/20 04:07:14;;;;;;;8.88;8.00;;;;;;;24.95;89.01;99994.88;4981675;28;20034;-72
2022/07/20 04:09:49;;;;;;;9.13;8.23;;;;;;;24.98;88.82;99999.78;4981008;28;20034;-72
2022/07/20 04:12:24;;;;;;;10.35;7.70;;;;;;;25.04;88.62;100005.13;4980085;28;20030;-73
2022/07/20 04:14:51;;;;;;;8.23;7.45;;;;;;;25.14;88.20;100001.91;4981153;28;20069;-72
2022/07/20 04:17:18;;;;;;;8.95;8.05;;;;;;;25.22;87.78;100004.28;4980641;28;20019;-72
2022/07/20 04:19:45;;;;;;;9.80;7.50;;;;;;;25.28;87.45;100016.88;4981208;28;20034;-71
2022/07/20 04:22:11;;;;;;;10.40;7.88;;;;;;;25.31;87.46;100011.03;4983664;28;20042;-73
2022/07/20 04:24:37;;;;;;;13.68;8.90;;;;;;;25.08;88.14;100016.31;4984975;28;20030;-71
2022/07/20 04:27:03;;;;;;;11.65;8.70;;;;;;;25.05;88.42;100017.59;4985423;28;20103;-71
2022/07/20 04:29:28;;;;;;;10.15;9.15;;;;;;;24.96;89.40;100013.53;4984228;28;20033;-71
2022/07/20 04:31:55;;;;;;;9.43;7.68;;;;;;;24.84;90.74;100026.09;4985641;28;20026;-71
2022/07/20 04:34:20;;;;;;;9.23;8.38;;;;;;;24.67;91.60;100020.47;4983328;28;20038;-72
2022/07/20 04:36:46;;;;;;;13.95;9.13;;;;;;;24.53;92.24;100018.94;4984995;28;20041;-72
2022/07/20 04:39:13;;;;;;;10.80;8.00;;;;;;;24.52;92.11;100022.69;4981881;28;20037;-71
2022/07/20 04:41:38;;;;;;;12.20;7.57;;;;;;;24.67;91.28;100025.88;4983606;28;20038;-72
2022/07/20 04:44:05;;;;;;;8.82;8.02;;;;;;;24.76;90.69;100019.13;4987653;28;20038;-71
2022/07/20 04:46:30;;;;;;;11.00;8.05;;;;;;;24.78;90.29;100032.41;4979772;28;20109;-72
2022/07/20 04:48:56;;;;;;;11.82;7.75;;;;;;;24.83;90.36;100030.69;4985593;28;20114;-72
2022/07/20 04:51:22;;;;;;;8.60;7.65;;;;;;;24.75;90.78;100035.53;4984353;28;20030;-72
2022/07/20 04:53:48;;;;;;;9.48;7.18;;;;;;;24.76;90.90;100029.91;4985131;28;20109;-76
2022/07/20 04:56:14;;;;;;;8.68;7.88;;;;;;;24.78;91.06;100035.94;4983227;28;20035;-74
2022/07/20 04:58:39;;;;;;;8.63;7.90;;;;;;;24.90;90.15;100035.22;4982092;28;20030;-74
2022/07/20 05:01:05;;;;;;;8.50;7.70;;;;;;;25.00;89.51;100024.72;4983866;28;20031;-75
2022/07/20 05:03:31;;;;;;;10.13;7.30;;;;;;;25.14;89.30;100032.44;4982954;28;20042;-75
2022/07/20 05:05:56;;;;;;;13.55;7.45;;;;;;;25.26;89.05;100027.13;4985405;28;20058;-74
2022/07/20 05:08:22;;;;;;;8.88;7.22;;;;;;;25.32;88.45;100023.50;4982930;28;20149;-74
2022/07/20 05:10:48;;;;;;;7.50;6.90;;;;;;;25.41;88.27;100026.69;4984674;28;20443;-74
2022/07/20 05:13:13;;;;;;;8.40;7.53;;;;;;;25.47;87.35;100023.09;4983156;28;20522;-74
2022/07/20 05:15:39;;;;;;;8.07;7.28;;;;;;;25.50;86.84;100023.47;4984175;28;20030;-73
2022/07/20 05:18:04;;;;;;;7.95;7.25;;;;;;;25.57;86.92;100028.78;4981668;28;20065;-74
2022/07/20 05:20:30;;;;;;;8.20;7.50;;;;;;;25.59;86.63;100030.22;4982496;28;20104;-76
2022/07/20 05:22:56;;;;;;;8.02;7.40;;;;;;;25.64;86.78;100027.66;4996697;28;20039;-74
2022/07/20 05:25:21;;;;;;;8.23;7.43;;;;;;;25.72;86.26;100028.41;4984107;28;20161;-77
2022/07/20 05:27:47;;;;;;;14.27;7.32;;;;;;;25.81;85.35;100027.00;4983802;28;20093;-77
2022/07/20 05:30:13;;;;;;;7.70;7.00;;;;;;;25.87;84.29;100026.06;4983613;28;20034;-76
2022/07/20 05:32:39;;;;;;;7.65;6.95;;;;;;;25.94;83.58;100034.94;4983345;28;20034;-76
2022/07/20 05:35:07;;;;;;;9.13;8.10;;;;;;;26.03;81.92;100030.84;4984545;28;20050;-76
2022/07/20 05:37:32;;;;;;;7.88;7.22;;;;;;;26.08;80.39;100034.50;4961914;28;20034;-77
2022/07/20 05:39:58;;;;;;;7.32;6.47;;;;;;;26.18;80.00;100043.91;4984997;28;20030;-76
2022/07/20 05:42:23;;;;;;;7.45;6.78;;;;;;;26.25;78.15;100042.78;4982909;28;20033;-77
2022/07/20 05:44:49;;;;;;;9.63;7.22;;;;;;;26.31;77.62;100041.03;4974112;28;20054;-75
2022/07/20 05:47:15;;;;;;;7.88;6.63;;;;;;;26.32;75.80;100040.81;4968849;28;20046;-77
2022/07/20 05:49:40;;;;;;;11.02;6.78;;;;;;;26.38;75.02;100049.88;4967472;28;20082;-77
2022/07/20 05:52:06;;;;;;;6.32;5.75;;;;;;;26.41;74.67;100044.81;4973538;28;20464;-77
2022/07/20 05:54:31;;;;;;;8.75;7.22;;;;;;;26.44;74.06;100049.78;4974918;28;20042;-76
2022/07/20 05:56:57;;;;;;;7.63;6.43;;;;;;;26.41;75.05;100044.81;4971783;28;20336;-75
2022/07/20 05:59:23;;;;;;;8.50;6.45;;;;;;;26.43;74.16;100052.69;4990958;28;20121;-74
2022/07/20 06:01:49;;;;;;;7.07;6.00;;;;;;;26.48;74.44;100050.94;4974897;28;20034;-74
2022/07/20 06:04:14;;;;;;;10.77;6.88;;;;;;;26.55;73.27;100050.00;4975847;28;20101;-75
2022/07/20 06:06:41;;;;;;;8.52;6.30;;;;;;;26.62;74.11;100051.53;4971368;28;20059;-74
2022/07/20 06:09:07;;;;;;;8.90;7.43;;;;;;;26.68;74.67;100055.19;4973371;28;20042;-73
2022/07/20 06:11:34;;;;;;;7.97;6.07;;;;;;;26.69;74.38;100054.09;4973978;28;20049;-74
2022/07/20 06:14:00;;;;;;;8.07;6.22;;;;;;;26.71;72.49;100049.28;4981690;28;20023;-79
2022/07/20 06:16:27;;;;;;;9.23;5.88;;;;;;;26.75;72.68;100061.28;4973960;28;20039;-79
2022/07/20 06:18:56;;;;;;;11.80;6.45;;;;;;;26.72;73.72;100056.34;4985542;28;20062;-77
2022/07/20 06:21:21;;;;;;;9.07;5.75;;;;;;;26.75;71.99;100061.28;4977105;28;20065;-77
2022/07/20 06:23:47;;;;;;;6.53;5.63;;;;;;;26.83;70.59;100063.66;4980424;28;20034;-72
2022/07/20 06:26:12;;;;;;;9.68;5.63;;;;;;;26.93;68.41;100058.47;4977687;28;20644;-73
2022/07/20 06:28:38;;;;;;;7.97;4.95;;;;;;;27.03;65.19;100058.72;4975456;28;20097;-72
2022/07/20 06:31:05;;;;;;;5.75;4.63;;;;;;;27.15;63.11;100066.84;4977742;28;20080;-73
2022/07/20 06:33:32;;;;;;;5.40;4.90;;;;;;;27.24;62.67;100068.94;4624489;28;10000435;-73
2022/07/20 06:35:57;;;;;;;7.13;4.60;;;;;;;27.32;62.11;100064.22;4976373;28;20129;-73
2022/07/20 06:38:23;;;;;;;6.35;4.80;;;;;;;27.33;58.93;100071.28;4980688;28;20469;-73
2022/07/20 06:40:49;;;;;;;9.93;5.53;;;;;;;27.35;57.89;100071.84;4981357;28;20031;-73
2022/07/20 06:43:14;;;;;;;5.60;5.05;;;;;;;27.37;57.31;100077.84;4981246;28;20027;-72
2022/07/20 06:45:40;;;;;;;6.40;4.95;;;;;;;27.41;56.73;100066.28;4978750;28;20141;-72
2022/07/20 06:48:06;;;;;;;7.43;4.30;;;;;;;27.49;55.24;100073.22;4981930;28;20046;-72
2022/07/20 06:50:31;;;;;;;8.88;5.22;;;;;;;27.56;56.14;100073.94;4982441;28;20391;-73
2022/07/20 06:52:57;;;;;;;7.25;4.22;;;;;;;27.59;55.84;100074.28;4978542;28;20026;-73
2022/07/20 06:55:22;;;;;;;7.35;4.97;;;;;;;27.66;55.86;100079.56;4980579;28;20038;-73
2022/07/20 06:57:48;;;;;;;7.78;4.65;;;;;;;27.76;55.89;100084.34;4982554;28;20038;-73
2022/07/20 07:00:14;;;;;;;4.93;4.43;;;;;;;27.83;54.67;100077.72;4981572;28;20038;-73
2022/07/20 07:02:40;;;;;;;8.27;4.97;;;;;;;27.91;53.56;100082.75;4981066;28;20101;-73
2022/07/20 07:05:06;;;;;;;4.88;4.38;;;;;;;27.98;52.42;100080.69;4982031;28;20037;-74
2022/07/20 07:07:32;;;;;;;5.47;4.68;;;;;;;28.05;52.74;100078.66;4980841;28;20061;-72
2022/07/20 07:09:58;;;;;;;6.88;4.70;;;;;;;28.08;52.86;100088.22;4981998;28;20054;-72
2022/07/20 07:12:23;;;;;;;6.65;4.45;;;;;;;28.16;53.13;100089.75;4978030;28;20022;-72
2022/07/20 07:14:49;;;;;;;8.45;4.75;;;;;;;28.19;53.35;100086.53;4982213;28;20073;-73
2022/07/20 07:17:15;;;;;;;6.53;4.53;;;;;;;28.28;53.68;100090.47;4980856;28;20111;-73
2022/07/20 07:19:42;;;;;;;5.85;4.13;;;;;;;28.32;51.75;100088.94;4980873;28;20479;-75
2022/07/20 07:22:08;;;;;;;6.35;3.97;;;;;;;28.40;50.81;100091.22;4982004;28;20509;-75
2022/07/20 07:24:33;;;;;;;5.22;3.83;;;;;;;28.40;50.65;100088.50;4981588;28;20490;-73
2022/07/20 07:26:59;;;;;;;7.45;4.15;;;;;;;28.46;50.79;100084.81;4981915;28;20068;-76
2022/07/20 07:29:26;;;;;;;7.63;4.20;;;;;;;28.52;50.32;100091.97;4980170;28;20038;-73
2022/07/20 07:31:52;;;;;;;4.30;3.90;;;;;;;28.60;50.51;100091.56;4978055;28;20030;-73
2022/07/20 07:34:18;;;;;;;7.63;4.05;;;;;;;28.56;49.97;100089.59;4980845;28;20476;-72
2022/07/20 07:36:43;;;;;;;5.85;4.13;;;;;;;28.63;50.66;100085.63;4981419;28;20027;-73
2022/07/20 07:39:09;;;;;;;4.78;3.97;;;;;;;28.77;50.57;100086.97;4980169;28;20022;-74
2022/07/20 07:41:35;;;;;;;6.28;3.70;;;;;;;28.90;49.28;100086.63;4980873;28;20085;-72
2022/07/20 07:44:00;;;;;;;10.02;4.15;;;;;;;28.97;47.75;100074.78;4984172;28;20042;-73
2022/07/20 07:46:26;;;;;;;6.40;4.47;;;;;;;29.01;47.20;100075.91;4975732;28;20114;-72
2022/07/20 07:48:52;;;;;;;4.15;3.60;;;;;;;29.06;47.22;100073.25;4982165;28;20065;-73
2022/07/20 07:51:18;;;;;;;6.53;3.67;;;;;;;29.12;46.11;100072.25;4977671;28;20180;-73
2022/07/20 07:53:43;;;;;;;6.78;3.28;;;;;;;29.19;45.98;100070.19;4978920;28;20117;-72
2022/07/20 07:56:09;;;;;;;4.18;3.20;;;;;;;29.29;45.68;100073.03;4982503;28;20101;-73
2022/07/20 07:58:34;;;;;;;6.03;3.58;;;;;;;29.41;45.25;100079.19;4984367;28;20093;-72
2022/07/20 08:01:00;;;;;;;5.10;3.60;;;;;;;29.52;44.63;100078.22;4984205;28;20035;-73
2022/07/20 08:03:26;;;;;;;8.88;3.45;;;;;;;29.59;43.83;100076.16;4975895;28;20022;-72
2022/07/20 08:05:51;;;;;;;3.85;3.40;;;;;;;29.74;43.42;100074.69;4985797;28;20030;-74
2022/07/20 08:08:17;;;;;;;5.80;3.63;;;;;;;29.79;43.78;100075.56;4982130;28;20117;-72
2022/07/20 08:10:44;;;;;;;5.80;3.97;;;;;;;29.83;43.32;100073.13;4983822;28;20039;-73
2022/07/20 08:13:10;;;;;;;3.85;3.55;;;;;;;29.82;43.08;100082.38;4983228;28;20041;-73
2022/07/20 08:15:37;;;;;;;5.03;3.85;;;;;;;29.82;42.94;100079.66;4984258;28;20117;-73
2022/07/20 08:18:03;;;;;;;9.25;3.78;;;;;;;29.81;42.52;100080.75;4983699;28;20037;-73
2022/07/20 08:20:29;;;;;;;6.00;3.38;;;;;;;29.77;42.40;100079.59;4983160;28;20027;-73
2022/07/20 08:22:55;;;;;;;6.43;3.70;;;;;;;29.86;42.25;100073.47;4985538;28;20023;-73
2022/07/20 08:25:21;;;;;;;6.38;3.65;;;;;;;29.98;42.24;100086.94;4984152;28;20121;-73
2022/07/20 08:27:47;;;;;;;6.15;3.17;;;;;;;30.11;40.69;100075.63;4980122;28;20145;-73
2022/07/20 08:30:13;;;;;;;5.40;2.95;;;;;;;30.19;39.69;100077.88;4982749;28;20027;-73
2022/07/20 08:32:38;;;;;;;6.20;3.42;;;;;;;30.30;38.92;100082.34;4982895;28;20418;-73
2022/07/20 08:35:04;;;;;;;5.63;3.28;;;;;;;30.43;39.55;100079.19;4985583;28;20030;-73
2022/07/20 08:37:30;;;;;;;5.53;3.22;;;;;;;30.51;39.09;100081.44;5000784;28;20435;-74
2022/07/20 08:39:56;;;;;;;5.00;3.22;;;;;;;30.60;37.89;100080.97;4983165;28;20117;-74
2022/07/20 08:42:22;;;;;;;4.07;3.40;;;;;;;30.65;36.96;100081.00;4980716;28;20038;-73
2022/07/20 08:44:48;;;;;;;6.00;2.90;;;;;;;30.66;37.27;100069.03;4986228;28;20042;-74
2022/07/20 08:47:15;;;;;;;4.38;2.78;;;;;;;30.76;36.71;100063.63;4980728;28;20034;-74
2022/07/20 08:49:49;;;;;;;3.88;2.78;;;;;;;30.78;35.28;100069.66;4984784;28;20041;-74
2022/07/20 08:52:16;;;;;;;3.65;3.35;;;;;;;30.82;36.55;100065.31;4984213;28;20034;-72
2022/07/20 08:54:42;;;;;;;3.40;2.95;;;;;;;30.87;35.47;100068.88;4985585;28;20093;-74
2022/07/20 08:57:09;;;;;;;5.22;3.00;;;;;;;30.92;35.21;100068.13;4979260;28;20133;-74
2022/07/20 08:59:35;;;;;;;4.30;3.05;;;;;;;30.91;35.32;100063.75;4981959;28;20113;-73
2022/07/20 09:02:05;;;;;;;5.10;2.78;;;;;;;30.96;35.44;100068.41;4986895;28;20035;-73
2022/07/20 09:04:31;;;;;;;6.70;3.63;;;;;;;31.05;35.85;100067.66;4979854;28;20479;-74
2022/07/20 09:06:57;;;;;;;5.10;2.90;;;;;;;31.07;35.30;100067.41;4980170;28;20061;-73
2022/07/20 09:09:23;;;;;;;3.40;3.10;;;;;;;31.09;35.98;100063.34;4981099;28;20502;-74
2022/07/20 09:11:50;;;;;;;6.00;2.90;;;;;;;31.10;37.11;100059.53;4985585;28;20383;-73
2022/07/20 09:14:49;;;;;;;4.90;3.20;;;;;;;31.17;35.79;100062.81;4984156;28;20419;-73
2022/07/20 09:17:25;;;;;;;4.28;3.42;;;;;;;31.21;36.00;100069.41;4980284;28;20380;-73
2022/07/20 09:19:55;;;;;;;5.85;3.30;;;;;;;31.20;35.91;100056.84;4984675;28;20053;-74
2022/07/20 09:22:29;;;;;;;3.17;2.95;;;;;;;31.21;35.16;100063.94;4980041;28;20539;-74
2022/07/20 09:25:10;;;;;;;3.40;3.05;;;;;;;31.19;35.27;100060.66;4979216;28;20761;-73
2022/07/20 09:27:37;;;;;;;5.10;3.33;;;;;;;31.13;35.02;100059.00;4978377;28;20477;-73
2022/07/20 09:30:09;;;;;;;3.70;3.22;;;;;;;31.13;34.87;100053.53;4978984;28;20027;-74
2022/07/20 09:33:06;;;;;;;4.88;3.42;;;;;;;31.15;34.70;100058.72;4980895;28;20050;-74
2022/07/20 09:35:34;;;;;;;5.53;3.30;;;;;;;31.15;34.85;100054.09;4981831;28;20371;-74
2022/07/20 09:38:02;;;;;;;3.88;3.30;;;;;;;31.17;36.01;100045.63;4984608;28;20117;-74
2022/07/20 09:40:37;;;;;;;3.30;3.00;;;;;;;31.19;35.10;100047.03;4973461;28;20140;-73
2022/07/20 09:43:03;;;;;;;5.38;3.33;;;;;;;31.22;35.24;100049.19;4978166;28;20027;-73
2022/07/20 09:45:29;;;;;;;4.13;3.03;;;;;;;31.29;35.38;100049.78;4978016;28;20062;-73
2022/07/20 09:48:04;;;;;;;3.58;3.05;;;;;;;31.37;35.41;100050.38;4982575;28;20033;-73
2022/07/20 09:50:31;;;;;;;3.67;3.17;;;;;;;31.38;35.30;100046.56;4975872;28;20030;-74
2022/07/20 09:52:58;;;;;;;8.32;3.60;;;;;;;31.38;37.24;100035.66;4980817;28;20030;-73
2022/07/20 09:55:25;;;;;;;6.70;3.45;;;;;;;31.31;37.42;100036.72;4983824;28;20031;-74
2022/07/20 09:57:52;;;;;;;3.38;3.10;;;;;;;31.27;36.37;100027.44;4981452;28;20042;-75
2022/07/20 10:00:19;;;;;;;5.00;3.08;;;;;;;31.29;35.64;100032.59;4982176;28;20058;-74
2022/07/20 10:02:50;;;;;;;4.28;2.95;;;;;;;31.36;35.70;100026.91;4975897;28;20042;-74
2022/07/20 10:05:18;;;;;;;4.20;2.92;;;;;;;31.47;35.29;100023.13;4981275;28;20117;-74
2022/07/20 10:07:45;;;;;;;3.88;3.20;;;;;;;31.58;34.11;100031.09;4981794;28;20041;-74
2022/07/20 10:10:11;;;;;;;5.55;3.00;;;;;;;31.60;34.60;100022.66;4982717;28;20359;-72
2022/07/20 10:12:37;;;;;;;6.65;3.40;;;;;;;31.61;33.68;100016.09;4981478;28;20030;-73
2022/07/20 10:15:10;;;;;;;3.60;3.22;;;;;;;31.63;33.89;100016.66;4984820;28;20090;-74
2022/07/20 10:17:36;;;;;;;4.93;2.83;;;;;;;31.70;34.09;100011.75;4981940;28;20041;-72
2022/07/20 10:20:03;;;;;;;3.75;3.45;;;;;;;31.73;33.98;100011.22;4981764;28;20030;-73
2022/07/20 10:22:28;;;;;;;5.57;2.95;;;;;;;31.80;33.80;100011.78;4979579;28;20059;-74
2022/07/20 10:25:14;;;;;;;3.47;3.15;;;;;;;31.85;34.31;100009.06;4983341;28;20061;-73
2022/07/20 10:27:40;;;;;;;3.35;3.05;;;;;;;31.99;33.73;100009.31;4978587;28;20042;-73
2022/07/20 10:30:19;;;;;;;7.82;3.00;;;;;;;32.07;34.10;100006.06;4982802;28;20045;-73
2022/07/20 10:32:56;;;;;;;6.88;2.72;;;;;;;32.18;33.45;100012.34;4981323;28;20034;-74
2022/07/20 10:35:28;;;;;;;3.88;2.53;;;;;;;32.16;33.08;99998.19;4982816;28;20138;-73
2022/07/20 10:37:55;;;;;;;5.25;2.88;;;;;;;32.22;33.57;99997.09;4983842;28;20027;-73
2022/07/20 10:40:23;;;;;;;7.95;3.25;;;;;;;32.26;33.21;99998.16;4981513;28;20192;-74
2022/07/20 10:43:06;;;;;;;4.57;3.00;;;;;;;32.27;33.15;99994.34;4979832;28;20117;-73
2022/07/20 10:45:33;;;;;;;4.60;2.38;;;;;;;32.32;32.61;99994.34;4993656;28;20391;-73
2022/07/20 10:48:01;;;;;;;3.45;2.58;;;;;;;32.30;32.15;99991.06;4982493;28;20031;-73
2022/07/20 10:50:36;;;;;;;3.20;2.83;;;;;;;32.30;32.59;99985.59;4975894;28;20042;-73
2022/07/20 10:53:10;;;;;;;3.90;2.63;;;;;;;32.34;32.52;99976.56;4979042;28;20494;-73
2022/07/20 10:55:36;;;;;;;3.45;2.95;;;;;;;32.35;32.85;99974.66;4981942;28;20121;-73
2022/07/20 10:58:21;;;;;;;3.53;3.03;;;;;;;32.46;32.87;99976.28;4982995;28;20069;-74
2022/07/20 11:00:57;;;;;;;4.10;2.50;;;;;;;32.55;31.85;99971.91;4978593;28;20209;-73
2022/07/20 11:03:30;;;;;;;4.85;2.90;;;;;;;32.64;31.41;99975.69;4983221;28;20093;-73
2022/07/20 11:06:02;;;;;;;2.78;2.55;;;;;;;32.69;31.64;99970.25;4983273;28;20391;-74
2022/07/20 11:08:27;;;;;;;3.20;2.90;;;;;;;32.74;31.49;99972.97;4974608;28;20030;-74
2022/07/20 11:10:55;;;;;;;3.63;3.15;;;;;;;32.81;31.09;99962.53;4983600;28;20030;-74
2022/07/20 11:13:22;;;;;;;4.18;2.72;;;;;;;32.77;30.73;99956.00;4982042;28;20046;-74
2022/07/20 11:15:53;;;;;;;3.85;2.58;;;;;;;32.85;30.34;99958.19;4996450;28;20399;-74
2022/07/20 11:18:21;;;;;;;2.50;2.30;;;;;;;32.87;30.23;99955.97;4978470;28;20027;-74
2022/07/20 11:20:53;;;;;;;3.75;2.47;;;;;;;32.86;30.25;99959.00;4981601;28;20035;-73
2022/07/20 11:23:23;;;;;;;4.53;2.80;;;;;;;32.84;30.61;99950.25;4981821;28;20547;-74
2022/07/20 11:25:59;;;;;;;;;;;;;;;32.88;30.23;99946.66;4981730;28;20094;-73
2022/07/20 11:28:24;;;;;;;2.50;2.28;;;;;;;32.95;29.93;99945.56;4979311;28;19918;-73